Time;durP1;ratioP1;P1;durP2;ratioP2;P2;SDS_P1;SDS_P2;PMS_P1;PMS_P2;Temp;Humidity;BMP_temperature;BMP_pressure;BME280_temperature;BME280_humidity;BME280_pressure;Samples;Min_cycle;Max_cycle;Signal;HPM_P1;HPM_P2
2021/11/01 00:00:36;;;;;;;18.33;10.33;;;9.50;99.90;;;;;;5082785;28;20208;-74
2021/11/01 00:03:03;;;;;;;14.87;9.00;;;9.50;99.90;;;;;;5077971;28;20267;-74
2021/11/01 00:05:30;;;;;;;20.23;11.23;;;9.50;99.90;;;;;;5075862;28;20232;-74
2021/11/01 00:07:57;;;;;;;21.00;11.57;;;9.50;99.90;;;;;;5079158;28;20296;-73
2021/11/01 00:10:24;;;;;;;18.47;10.17;;;9.40;99.90;;;;;;5094513;28;20584;-74
2021/11/01 00:12:53;;;;;;;16.07;9.93;;;9.40;99.90;;;;;;5100203;28;20574;-73
2021/11/01 00:15:20;;;;;;;16.97;9.17;;;9.40;99.90;;;;;;5101169;28;20236;-74
2021/11/01 00:17:47;;;;;;;13.63;8.90;;;9.40;99.90;;;;;;5097950;28;20189;-74
2021/11/01 00:20:14;;;;;;;16.10;9.77;;;9.40;99.90;;;;;;5076692;28;20222;-74
2021/11/01 00:22:41;;;;;;;17.50;9.53;;;9.30;99.90;;;;;;5082192;28;20258;-75
2021/11/01 00:25:09;;;;;;;17.30;10.13;;;9.30;99.90;;;;;;5083445;28;20204;-74
2021/11/01 00:27:37;;;;;;;16.10;9.20;;;9.30;99.90;;;;;;5080127;28;20290;-74
2021/11/01 00:30:08;;;;;;;18.10;10.13;;;9.20;99.90;;;;;;5076203;28;20209;-74
2021/11/01 00:32:36;;;;;;;22.57;11.77;;;9.20;99.90;;;;;;5097803;28;20204;-74
2021/11/01 00:35:03;;;;;;;18.97;11.47;;;9.10;99.90;;;;;;5101888;28;20296;-74
2021/11/01 00:37:30;;;;;;;18.17;10.83;;;9.10;99.90;;;;;;5099904;28;20193;-74
2021/11/01 00:39:58;;;;;;;18.40;11.50;;;9.10;99.90;;;;;;5093942;28;20567;-75
2021/11/01 00:42:26;;;;;;;18.93;11.17;;;9.10;99.90;;;;;;5078091;28;20725;-75
2021/11/01 00:44:53;;;;;;;21.13;11.53;;;9.00;99.90;;;;;;5101537;28;20592;-75
2021/11/01 00:47:22;;;;;;;18.80;10.87;;;9.00;99.90;;;;;;5081793;28;20299;-75
2021/11/01 00:49:50;;;;;;;16.97;9.30;;;8.90;99.90;;;;;;5094542;28;20563;-75
2021/11/01 00:52:22;;;;;;;15.77;9.07;;;8.90;99.90;;;;;;5088804;28;20653;-75
2021/11/01 00:54:50;;;;;;;16.10;9.50;;;8.90;99.90;;;;;;5095529;28;20301;-75
2021/11/01 00:57:17;;;;;;;15.93;9.17;;;8.90;99.90;;;;;;5088493;28;20250;-75
2021/11/01 00:59:44;;;;;;;15.53;8.60;;;8.80;99.90;;;;;;5082386;28;20290;-75
2021/11/01 01:02:12;;;;;;;17.80;10.33;;;8.80;99.90;;;;;;5102457;28;20279;-75
2021/11/01 01:04:41;;;;;;;17.40;10.33;;;8.80;99.90;;;;;;5078636;28;20345;-75
2021/11/01 01:07:08;;;;;;;16.97;9.77;;;8.70;99.90;;;;;;5087441;28;20628;-75
2021/11/01 01:09:35;;;;;;;17.57;10.03;;;8.70;99.90;;;;;;5073249;28;20193;-75
2021/11/01 01:12:02;;;;;;;20.10;10.73;;;8.70;99.90;;;;;;5105389;28;20197;-75
2021/11/01 01:14:31;;;;;;;18.77;9.57;;;8.60;99.90;;;;;;5100579;28;20251;-75
2021/11/01 01:17:00;;;;;;;16.23;9.30;;;8.60;99.90;;;;;;5080200;28;20208;-75
2021/11/01 01:19:34;;;;;;;14.13;8.40;;;8.60;99.90;;;;;;5083303;28;20250;-75
2021/11/01 01:22:18;;;;;;;15.57;9.07;;;8.60;99.90;;;;;;5087049;28;20198;-75
2021/11/01 01:24:45;;;;;;;15.20;9.00;;;8.50;99.90;;;;;;5086944;28;20199;-75
2021/11/01 01:27:12;;;;;;;15.87;9.87;;;8.50;99.90;;;;;;5074000;28;20291;-74
2021/11/01 01:29:39;;;;;;;19.30;10.33;;;8.50;99.90;;;;;;5085784;28;20202;-75
2021/11/01 01:32:09;;;;;;;18.67;9.53;;;8.40;99.90;;;;;;5080257;28;20254;-75
2021/11/01 01:34:36;;;;;;;15.90;9.10;;;8.40;99.90;;;;;;5098608;28;20219;-75
2021/11/01 01:37:05;;;;;;;13.47;8.00;;;8.40;99.90;;;;;;5085889;28;20295;-75
2021/11/01 01:39:33;;;;;;;11.23;7.10;;;8.40;99.90;;;;;;5085609;28;20303;-75
2021/11/01 01:42:00;;;;;;;12.13;7.80;;;8.40;99.90;;;;;;5073409;28;20252;-75
2021/11/01 01:44:27;;;;;;;11.03;7.07;;;8.40;99.90;;;;;;5085177;28;20197;-75
2021/11/01 01:46:54;;;;;;;14.80;8.03;;;8.30;99.90;;;;;;5072659;28;20650;-75
2021/11/01 01:49:21;;;;;;;13.33;7.90;;;8.30;99.90;;;;;;5085797;28;20210;-75
2021/11/01 01:51:48;;;;;;;12.07;7.47;;;8.30;99.90;;;;;;5073232;28;20208;-75
2021/11/01 01:54:17;;;;;;;15.53;8.60;;;8.20;99.90;;;;;;5085970;28;20607;-75
2021/11/01 01:56:44;;;;;;;15.97;8.87;;;8.20;99.90;;;;;;5073434;28;20261;-74
2021/11/01 01:59:18;;;;;;;14.30;8.40;;;8.20;99.90;;;;;;5085351;28;20200;-75
2021/11/01 02:01:46;;;;;;;13.30;8.03;;;8.20;99.90;;;;;;5082261;28;20587;-75
2021/11/01 02:04:16;;;;;;;13.53;8.53;;;8.10;99.90;;;;;;5079993;28;20224;-75
2021/11/01 02:07:06;;;;;;;12.77;7.93;;;8.10;99.90;;;;;;5091390;28;20204;-75
2021/11/01 02:09:43;;;;;;;10.17;6.93;;;8.10;99.90;;;;;;5076424;28;20205;-75
2021/11/01 02:12:17;;;;;;;15.37;9.03;;;8.10;99.90;;;;;;5094044;28;20264;-75
2021/11/01 02:14:46;;;;;;;16.97;9.43;;;8.00;99.90;;;;;;5081365;28;20285;-75
2021/11/01 02:17:18;;;;;;;14.47;9.30;;;8.00;99.90;;;;;;5090778;28;20199;-75
2021/11/01 02:19:48;;;;;;;18.87;9.00;;;8.00;99.90;;;;;;5080132;28;20686;-75
2021/11/01 02:22:21;;;;;;;15.63;8.97;;;8.00;99.90;;;;;;5104074;28;20196;-75
2021/11/01 02:25:03;;;;;;;12.03;7.70;;;8.00;99.90;;;;;;5085944;28;20742;-75
2021/11/01 02:27:34;;;;;;;13.20;7.37;;;8.00;99.90;;;;;;5072221;28;20219;-75
2021/11/01 02:30:03;;;;;;;13.23;7.50;;;8.00;99.90;;;;;;5088551;28;20302;-75
2021/11/01 02:32:32;;;;;;;9.20;5.93;;;7.90;99.90;;;;;;5081667;28;20617;-75
2021/11/01 02:34:59;;;;;;;12.03;7.03;;;7.90;99.90;;;;;;5076326;28;20448;-75
2021/11/01 02:37:26;;;;;;;13.03;8.47;;;7.90;99.90;;;;;;5081387;28;20291;-75
2021/11/01 02:39:55;;;;;;;13.10;7.20;;;7.90;99.90;;;;;;5103427;28;20224;-75
2021/11/01 02:42:23;;;;;;;11.10;6.87;;;7.90;99.90;;;;;;5083261;28;20219;-75
2021/11/01 02:44:55;;;;;;;11.83;7.63;;;7.90;99.90;;;;;;5109572;28;20669;-75
2021/11/01 02:47:22;;;;;;;12.80;7.37;;;7.90;99.90;;;;;;5091187;28;20609;-75
2021/11/01 02:49:49;;;;;;;12.63;7.20;;;7.90;99.90;;;;;;5109584;28;20218;-75
2021/11/01 02:52:16;;;;;;;10.10;6.90;;;7.90;99.90;;;;;;5091289;28;20203;-75
2021/11/01 02:54:44;;;;;;;9.63;6.23;;;7.90;99.90;;;;;;5103821;28;20682;-75
2021/11/01 02:57:11;;;;;;;8.33;5.83;;;7.90;99.90;;;;;;5103255;28;20697;-74
2021/11/01 02:59:38;;;;;;;11.23;7.47;;;7.80;99.90;;;;;;5088918;28;20192;-75
2021/11/01 03:02:08;;;;;;;11.83;7.30;;;7.80;99.90;;;;;;5088777;28;20200;-75
2021/11/01 03:04:35;;;;;;;16.30;8.87;;;7.80;99.90;;;;;;5094975;28;20691;-75
2021/11/01 03:07:02;;;;;;;17.07;8.47;;;7.80;99.90;;;;;;5078039;28;20208;-75
2021/11/01 03:09:31;;;;;;;13.37;7.83;;;7.80;99.90;;;;;;5108789;28;20229;-75
2021/11/01 03:12:01;;;;;;;11.80;7.13;;;7.70;99.90;;;;;;5077465;28;20203;-74
2021/11/01 03:14:40;;;;;;;11.60;6.97;;;7.70;99.90;;;;;;5090759;28;20227;-74
2021/11/01 03:17:13;;;;;;;11.37;6.93;;;7.70;99.90;;;;;;5077303;28;20203;-74
2021/11/01 03:19:43;;;;;;;9.57;6.53;;;7.70;99.90;;;;;;5080136;28;20205;-75
2021/11/01 03:22:12;;;;;;;11.30;6.33;;;7.70;99.90;;;;;;5089582;28;20199;-75
2021/11/01 03:24:42;;;;;;;12.23;7.10;;;7.70;99.90;;;;;;5078398;28;20192;-75
2021/11/01 03:27:11;;;;;;;13.37;8.37;;;7.70;99.90;;;;;;5091089;28;20233;-75
2021/11/01 03:29:41;;;;;;;10.70;7.43;;;7.70;99.90;;;;;;5077272;28;20737;-75
2021/11/01 03:32:10;;;;;;;14.37;7.77;;;7.70;99.90;;;;;;5080811;28;20299;-75
2021/11/01 03:34:38;;;;;;;12.27;7.67;;;7.60;99.90;;;;;;5103343;28;20663;-75
2021/11/01 03:37:10;;;;;;;11.63;6.87;;;7.60;99.90;;;;;;5071734;28;20200;-75
2021/11/01 03:39:39;;;;;;;11.33;7.80;;;7.60;99.90;;;;;;5083981;28;20196;-75
2021/11/01 03:42:08;;;;;;;11.70;7.07;;;7.60;99.90;;;;;;5098219;28;20200;-75
2021/11/01 03:44:38;;;;;;;9.87;7.00;;;7.60;99.90;;;;;;5077543;28;20214;-75
2021/11/01 03:47:06;;;;;;;11.23;7.57;;;7.60;99.90;;;;;;5090215;28;20235;-75
2021/11/01 03:49:39;;;;;;;11.20;7.10;;;7.60;99.90;;;;;;5087245;28;20211;-75
2021/11/01 03:52:13;;;;;;;10.90;7.00;;;7.60;99.90;;;;;;5081741;28;20211;-75
2021/11/01 03:54:42;;;;;;;13.73;7.63;;;7.60;99.90;;;;;;5095904;28;20212;-75
2021/11/01 03:57:10;;;;;;;14.03;8.33;;;7.60;99.90;;;;;;5103096;28;20240;-75
2021/11/01 03:59:38;;;;;;;18.20;10.77;;;7.50;99.90;;;;;;5089303;28;20686;-75
2021/11/01 04:02:06;;;;;;;24.07;13.30;;;7.50;99.90;;;;;;5094282;28;20609;-75
2021/11/01 04:04:35;;;;;;;25.13;12.43;;;7.50;99.90;;;;;;5075398;28;20227;-75
2021/11/01 04:07:02;;;;;;;23.90;11.73;;;7.50;99.90;;;;;;5084145;28;20234;-75
2021/11/01 04:09:29;;;;;;;22.27;10.97;;;7.40;99.90;;;;;;5077829;28;20252;-75
2021/11/01 04:11:57;;;;;;;22.30;10.73;;;7.40;99.90;;;;;;5076865;28;20668;-75
2021/11/01 04:14:27;;;;;;;27.93;10.87;;;7.40;99.90;;;;;;5091140;28;20742;-75
2021/11/01 04:16:59;;;;;;;23.63;11.93;;;7.40;99.90;;;;;;5083215;28;20260;-75
2021/11/01 04:19:34;;;;;;;19.77;10.37;;;7.40;99.90;;;;;;5081209;28;20247;-75
2021/11/01 04:22:04;;;;;;;20.53;10.20;;;7.40;99.90;;;;;;5084559;28;20557;-75
2021/11/01 04:24:31;;;;;;;27.63;12.20;;;7.40;99.90;;;;;;5081443;28;20329;-74
2021/11/01 04:26:59;;;;;;;22.83;11.13;;;7.30;99.90;;;;;;5076747;28;20204;-74
2021/11/01 04:29:29;;;;;;;19.53;10.07;;;7.30;99.90;;;;;;5078057;28;20202;-74
2021/11/01 04:32:05;;;;;;;17.53;10.00;;;7.30;99.90;;;;;;5088138;28;20200;-75
2021/11/01 04:34:34;;;;;;;18.03;10.07;;;7.30;99.90;;;;;;5090299;28;20290;-74
2021/11/01 04:37:02;;;;;;;16.67;9.20;;;7.30;99.90;;;;;;5080968;28;20212;-74
2021/11/01 04:39:37;;;;;;;19.33;10.00;;;7.30;99.90;;;;;;5080516;28;20556;-74
2021/11/01 04:52:53;;;;;;;14.87;9.03;;;7.30;99.90;;;;;;5105388;28;20529;-74
2021/11/01 04:53:19;;;;;;;17.87;10.87;;;7.20;99.90;;;;;;5100094;28;20215;-75
2021/11/01 04:55:46;;;;;;;21.50;11.70;;;7.20;99.90;;;;;;5097857;28;20331;-75
2021/11/01 04:58:14;;;;;;;16.33;9.53;;;7.20;99.90;;;;;;5082246;28;20207;-74
2021/11/01 05:00:41;;;;;;;19.37;10.50;;;7.20;99.90;;;;;;5097974;28;20203;-75
2021/11/01 05:03:12;;;;;;;18.23;10.83;;;7.20;99.90;;;;;;5085198;28;20336;-75
2021/11/01 05:05:40;;;;;;;19.40;10.57;;;7.20;99.90;;;;;;5095286;28;20223;-74
2021/11/01 05:08:07;;;;;;;18.00;10.50;;;7.10;99.90;;;;;;5084232;28;20271;-74
2021/11/01 05:10:38;;;;;;;15.77;9.03;;;7.10;99.90;;;;;;5089916;28;20306;-74
2021/11/01 05:13:11;;;;;;;16.87;9.67;;;7.10;99.90;;;;;;5083676;28;20314;-74
2021/11/01 05:15:41;;;;;;;18.80;10.47;;;7.10;99.90;;;;;;5078583;28;20595;-74
2021/11/01 05:18:19;;;;;;;16.00;9.83;;;7.10;99.90;;;;;;5082659;28;20292;-74
2021/11/01 05:20:50;;;;;;;16.83;10.07;;;7.10;99.90;;;;;;5093342;28;20565;-74
2021/11/01 05:23:28;;;;;;;15.20;8.57;;;7.10;99.90;;;;;;5091907;28;20204;-75
2021/11/01 05:25:59;;;;;;;14.40;9.13;;;7.10;99.90;;;;;;5100802;28;20726;-74
2021/11/01 05:28:39;;;;;;;14.23;8.73;;;7.00;99.90;;;;;;5079518;28;20582;-75
2021/11/01 05:31:09;;;;;;;15.30;9.50;;;7.00;99.90;;;;;;5092619;28;20635;-75
2021/11/01 05:33:51;;;;;;;14.97;9.73;;;7.00;99.90;;;;;;5097379;28;20202;-75
2021/11/01 05:36:18;;;;;;;17.50;10.07;;;7.00;99.90;;;;;;5098333;28;20741;-75
2021/11/01 05:38:46;;;;;;;16.40;9.63;;;6.90;99.90;;;;;;5085196;28;20210;-75
2021/11/01 05:41:15;;;;;;;15.73;9.30;;;6.90;99.90;;;;;;5104807;28;20536;-75
2021/11/01 05:43:42;;;;;;;12.77;7.70;;;6.90;99.90;;;;;;5080998;28;20275;-75
2021/11/01 05:46:09;;;;;;;13.57;8.17;;;6.90;99.90;;;;;;5079544;28;20207;-75
2021/11/01 05:48:36;;;;;;;16.67;9.93;;;6.90;99.90;;;;;;5092247;28;20231;-74
2021/11/01 05:51:04;;;;;;;14.27;8.77;;;6.90;99.90;;;;;;5098040;28;20215;-74
2021/11/01 05:53:38;;;;;;;12.70;8.77;;;6.90;99.90;;;;;;5083703;28;20682;-74
2021/11/01 05:56:18;;;;;;;12.73;8.43;;;6.90;99.90;;;;;;5085938;28;20239;-75
2021/11/01 05:58:55;;;;;;;14.57;8.67;;;6.90;99.90;;;;;;5084365;28;20236;-75
2021/11/01 06:01:39;;;;;;;17.70;10.00;;;6.90;99.90;;;;;;5072535;28;20207;-75
2021/11/01 06:04:15;;;;;;;17.47;9.13;;;6.90;99.90;;;;;;5077201;28;20251;-75
2021/11/01 06:06:55;;;;;;;15.07;8.87;;;6.80;99.90;;;;;;5073198;28;20202;-74
2021/11/01 06:09:36;;;;;;;15.77;8.83;;;6.90;99.90;;;;;;5092530;28;20205;-75
2021/11/01 06:14:49;;;;;;;18.70;10.87;;;6.90;99.90;;;;;;5092190;28;20196;-75
2021/11/01 06:17:16;;;;;;;17.60;10.13;;;6.80;99.90;;;;;;5091196;28;20219;-75
2021/11/01 06:19:45;;;;;;;17.13;10.40;;;6.90;99.90;;;;;;5099081;28;20674;-75
2021/11/01 06:22:14;;;;;;;24.20;13.33;;;6.90;99.90;;;;;;5085515;28;20200;-75
2021/11/01 06:24:49;;;;;;;17.97;11.60;;;6.90;99.90;;;;;;5084861;28;20693;-75
2021/11/01 06:27:17;;;;;;;18.50;10.80;;;7.00;99.90;;;;;;5077332;28;20571;-75
2021/11/01 06:30:09;;;;;;;23.33;11.43;;;7.00;99.90;;;;;;5102240;28;20585;-75
2021/11/01 06:32:42;;;;;;;22.47;12.60;;;7.00;99.90;;;;;;5082858;28;20206;-75
2021/11/01 06:43:44;;;;;;;22.70;12.53;;;7.10;99.90;;;;;;5097501;28;20192;-75
2021/11/01 06:51:56;;;;;;;21.30;10.53;;;7.20;99.90;;;;;;5058867;28;20215;-75
2021/11/01 06:54:59;;;;;;;16.50;10.40;;;7.30;99.90;;;;;;5040427;28;20214;-75
2021/11/01 07:16:51;;;;;;;25.27;13.10;;;8.30;99.90;;;;;;4963463;28;20236;-75
2021/11/01 07:19:27;;;;;;;21.60;12.43;;;8.80;99.90;;;;;;4952157;28;20212;-75
2021/11/01 07:22:16;;;;;;;20.40;11.83;;;8.90;99.90;;;;;;4965419;28;20240;-75
2021/11/01 07:25:06;;;;;;;17.63;11.00;;;8.90;99.90;;;;;;4967326;28;20205;-75
2021/11/01 07:30:46;;;;;;;19.43;11.63;;;8.90;99.90;;;;;;4983328;28;20289;-75
2021/11/01 08:23:17;;;;;;;22.53;13.07;;;10.10;99.90;;;;;;5081086;28;20202;-74
2021/11/01 08:26:07;;;;;;;21.87;13.43;;;10.20;99.90;;;;;;5073811;28;20240;-74
2021/11/01 08:28:51;;;;;;;18.80;11.53;;;10.40;99.90;;;;;;5083159;28;20206;-74
2021/11/01 08:37:24;;;;;;;19.40;11.63;;;10.70;99.90;;;;;;5089466;28;20224;-74
2021/11/01 08:40:07;;;;;;;17.97;11.03;;;10.80;99.90;;;;;;5095044;28;20187;-74
2021/11/01 08:45:50;;;;;;;25.20;13.60;;;11.20;99.90;;;;;;5093894;28;20298;-75
2021/11/01 09:05:33;;;;;;;19.57;11.60;;;12.50;99.90;;;;;;5021260;28;20226;-74
2021/11/01 09:08:18;;;;;;;18.00;10.40;;;12.70;99.90;;;;;;5008998;28;20366;-74
2021/11/01 09:11:07;;;;;;;20.10;11.23;;;12.90;99.90;;;;;;5024372;28;20213;-74
2021/11/01 09:22:18;;;;;;;18.40;10.07;;;14.90;99.90;;;;;;4982215;28;20679;-74
2021/11/01 09:24:47;;;;;;;17.80;10.33;;;15.80;98.00;;;;;;4986842;28;20270;-74
2021/11/01 09:27:18;;;;;;;23.97;10.87;;;16.90;96.20;;;;;;5012912;28;20598;-74
2021/11/01 09:30:01;;;;;;;18.83;10.67;;;17.70;93.50;;;;;;5068794;28;20301;-74
2021/11/01 09:38:12;;;;;;;12.40;8.00;;;20.00;85.50;;;;;;5069134;28;20730;-74
2021/11/01 09:43:25;;;;;;;14.87;9.30;;;20.70;76.30;;;;;;5067777;28;20788;-75
2021/11/01 09:45:54;;;;;;;14.10;9.47;;;19.90;76.50;;;;;;5066982;28;20299;-76
2021/11/01 09:48:22;;;;;;;19.38;11.45;;;19.30;76.80;;;;;;5068491;28;20664;-75
2021/11/01 09:50:51;;;;;;;15.87;9.97;;;18.70;76.70;;;;;;5051749;28;20222;-74
2021/11/01 09:53:21;;;;;;;15.57;9.77;;;18.20;77.00;;;;;;5075532;28;20257;-75
2021/11/01 09:55:51;;;;;;;14.53;9.00;;;18.00;78.10;;;;;;5101572;28;20203;-75
2021/11/01 10:01:06;;;;;;;12.60;8.48;;;19.50;76.70;;;;;;5090143;28;20283;-75
2021/11/01 10:03:40;;;;;;;13.57;8.27;;;20.60;75.00;;;;;;5103038;28;20243;-75
2021/11/01 10:06:12;;;;;;;12.85;8.30;;;21.20;73.00;;;;;;5090820;28;20269;-75
2021/11/01 10:08:39;;;;;;;11.18;7.47;;;21.90;71.10;;;;;;5086195;28;20638;-75
2021/11/01 10:11:16;;;;;;;10.85;6.95;;;22.60;70.20;;;;;;5079588;28;20219;-75
2021/11/01 10:13:43;;;;;;;11.18;7.43;;;23.20;67.90;;;;;;5096462;28;20215;-75
2021/11/01 10:18:54;;;;;;;12.10;8.25;;;24.10;62.60;;;;;;5090588;28;20344;-75
2021/11/01 10:21:22;;;;;;;12.23;8.80;;;24.30;59.50;;;;;;5099296;28;20224;-75
2021/11/01 10:23:52;;;;;;;12.48;7.93;;;24.30;60.00;;;;;;5090577;28;20299;-75
2021/11/01 10:26:21;;;;;;;11.45;8.43;;;24.50;58.20;;;;;;5079851;28;20196;-75
2021/11/01 10:28:49;;;;;;;13.20;8.70;;;24.70;57.20;;;;;;5103401;28;20197;-75
2021/11/01 10:31:19;;;;;;;15.52;9.15;;;24.70;55.80;;;;;;5103956;28;20199;-75
2021/11/01 10:33:48;;;;;;;12.75;9.30;;;24.70;54.40;;;;;;5088360;28;20287;-75
2021/11/01 10:36:28;;;;;;;12.55;8.95;;;24.60;54.20;;;;;;5078354;28;20220;-75
2021/11/01 10:38:57;;;;;;;12.80;9.00;;;24.50;54.40;;;;;;5082276;28;20209;-75
2021/11/01 10:41:29;;;;;;;11.73;8.45;;;24.60;54.00;;;;;;5085777;28;20201;-75
2021/11/01 10:44:10;;;;;;;11.90;8.57;;;24.80;53.90;;;;;;5100484;28;20200;-75
2021/11/01 10:58:20;;;;;;;13.60;9.52;;;26.20;51.70;;;;;;5077301;28;20219;-75
2021/11/01 11:11:58;;;;;;;13.30;9.35;;;22.20;53.20;;;;;;5091800;28;20605;-75
2021/11/01 11:14:30;;;;;;;15.30;9.65;;;21.50;54.10;;;;;;5089053;28;20660;-75
2021/11/01 11:17:07;;;;;;;11.48;8.25;;;20.90;54.90;;;;;;5083716;28;20367;-75
2021/11/01 11:19:50;;;;;;;10.27;7.38;;;20.60;55.90;;;;;;5100408;28;20586;-76
2021/11/01 11:22:50;;;;;;;14.93;10.13;;;20.20;56.40;;;;;;5096056;28;20196;-74
2021/11/01 11:39:34;;;;;;;15.55;8.88;;;18.30;60.30;;;;;;5029695;28;20245;-74
2021/11/01 11:47:41;;;;;;;15.65;9.55;;;17.70;62.30;;;;;;5029009;28;20680;-74
2021/11/01 11:50:18;;;;;;;13.07;9.13;;;17.50;63.00;;;;;;5030220;28;20197;-75
2021/11/01 11:52:46;;;;;;;11.68;7.63;;;17.30;63.60;;;;;;5030226;28;20232;-74
2021/11/01 11:55:16;;;;;;;11.75;7.45;;;17.20;64.00;;;;;;5045456;28;20213;-75
2021/11/01 11:57:53;;;;;;;12.48;7.20;;;17.20;64.60;;;;;;5025143;28;20246;-74
2021/11/01 12:00:21;;;;;;;11.00;7.03;;;17.10;64.90;;;;;;5043730;28;20535;-75
2021/11/01 12:02:49;;;;;;;12.93;8.25;;;17.10;65.30;;;;;;5046213;28;20331;-75
2021/11/01 12:05:24;;;;;;;13.77;8.30;;;17.00;65.60;;;;;;5045565;28;20290;-75
2021/11/01 12:08:03;;;;;;;14.52;8.68;;;17.00;66.10;;;;;;5033792;28;20225;-74
2021/11/01 12:10:57;;;;;;;15.57;9.13;;;16.90;67.40;;;;;;5045418;28;20252;-75
2021/11/01 12:13:42;;;;;;;15.10;9.00;;;16.80;67.80;;;;;;5056043;28;20237;-75
2021/11/01 12:18:57;;;;;;;11.60;7.70;;;16.50;67.90;;;;;;5027612;28;20233;-75
2021/11/01 12:21:25;;;;;;;14.27;8.40;;;16.40;68.30;;;;;;5029532;28;20201;-75
2021/11/01 12:23:53;;;;;;;14.07;8.80;;;16.40;68.90;;;;;;5015415;28;20213;-74
2021/11/01 12:26:22;;;;;;;15.63;9.40;;;16.40;69.40;;;;;;5028464;28;20252;-75
2021/11/01 12:28:53;;;;;;;16.57;9.07;;;16.30;69.60;;;;;;5044611;28;20293;-75
2021/11/01 12:31:21;;;;;;;16.60;9.47;;;16.30;70.10;;;;;;5028560;28;20207;-74
2021/11/01 12:33:53;;;;;;;13.67;8.27;;;16.20;70.50;;;;;;5045729;28;20280;-74
2021/11/01 12:36:26;;;;;;;12.37;8.87;;;16.20;71.00;;;;;;5028317;28;20206;-75
2021/11/01 12:38:58;;;;;;;11.80;8.27;;;16.10;71.60;;;;;;5044943;28;20205;-75
2021/11/01 12:41:42;;;;;;;12.77;8.73;;;16.10;72.00;;;;;;5029181;28;20237;-75
2021/11/01 12:58:00;;;;;;;11.87;7.80;;;15.80;74.80;;;;;;4998431;28;20259;-74
2021/11/01 13:00:38;;;;;;;13.67;8.70;;;15.80;75.10;;;;;;5021975;28;20207;-74
2021/11/01 13:03:12;;;;;;;13.87;8.17;;;15.80;75.60;;;;;;5016586;28;20237;-74
2021/11/01 13:05:44;;;;;;;13.23;8.27;;;15.80;75.90;;;;;;5011697;28;20199;-75
2021/11/01 13:08:13;;;;;;;11.90;8.00;;;15.80;76.30;;;;;;5012720;28;20226;-75
2021/11/01 13:10:43;;;;;;;14.47;9.00;;;15.80;76.60;;;;;;5009889;28;20394;-75
2021/11/01 13:13:39;;;;;;;14.53;8.90;;;15.70;77.10;;;;;;5003691;28;20337;-75
2021/11/01 13:19:06;;;;;;;11.30;7.33;;;15.60;77.90;;;;;;5024910;28;20213;-75
2021/11/01 13:21:39;;;;;;;13.00;7.60;;;15.60;78.30;;;;;;5012823;28;20225;-75
2021/11/01 13:24:10;;;;;;;11.63;7.67;;;15.60;78.50;;;;;;5007751;28;20657;-75
2021/11/01 13:38:02;;;;;;;11.80;7.33;;;15.50;80.10;;;;;;4972958;28;20224;-75
2021/11/01 13:40:35;;;;;;;13.83;7.73;;;15.50;80.40;;;;;;4989068;28;20212;-75
2021/11/01 13:43:02;;;;;;;13.67;8.53;;;15.40;80.70;;;;;;4972760;28;20540;-74
2021/11/01 13:45:30;;;;;;;11.13;7.80;;;15.40;80.80;;;;;;4977099;28;20207;-75
2021/11/01 13:48:00;;;;;;;11.17;7.00;;;15.40;81.10;;;;;;4988655;28;20219;-75
2021/11/01 13:50:34;;;;;;;11.60;7.13;;;15.40;81.40;;;;;;4973058;28;20212;-75
2021/11/01 13:53:06;;;;;;;13.33;8.23;;;15.50;81.90;;;;;;4990024;28;20697;-75
2021/11/01 13:55:48;;;;;;;9.60;7.37;;;15.70;81.60;;;;;;4988539;28;20591;-74
2021/11/01 13:58:33;;;;;;;12.90;8.50;;;15.80;81.30;;;;;;4972234;28;20306;-74
2021/11/01 14:01:25;;;;;;;16.43;9.40;;;15.70;81.30;;;;;;5011951;28;20649;-74
2021/11/01 14:12:26;;;;;;;14.07;8.93;;;15.30;83.20;;;;;;5005098;28;20208;-75
2021/11/01 14:14:58;;;;;;;15.53;8.97;;;15.20;83.60;;;;;;5010911;28;20236;-75
2021/11/01 14:28:48;;;;;;;11.40;7.40;;;15.00;85.50;;;;;;4982119;28;20225;-75
2021/11/01 14:31:34;;;;;;;13.30;8.57;;;14.90;85.70;;;;;;5000236;28;20210;-74
2021/11/01 15:16:19;;;;;;;14.07;8.47;;;14.30;90.60;;;;;;5082030;28;20607;-74
2021/11/01 15:18:59;;;;;;;13.17;8.23;;;14.20;90.80;;;;;;5079233;28;20204;-74
2021/11/01 15:21:32;;;;;;;11.23;7.30;;;14.10;91.00;;;;;;5080413;28;20201;-74
2021/11/01 15:24:25;;;;;;;14.83;7.83;;;14.00;91.40;;;;;;5076270;28;20662;-74
2021/11/01 15:35:18;;;;;;;12.43;7.40;;;13.90;91.80;;;;;;4931691;28;20269;-75
2021/11/01 15:37:55;;;;;;;15.47;8.63;;;13.80;91.90;;;;;;4937534;28;20215;-74
2021/11/01 15:40:42;;;;;;;18.90;9.97;;;13.80;92.40;;;;;;4941185;28;20756;-74
2021/11/01 16:19:01;;;;;;;17.17;9.87;;;13.70;93.60;;;;;;4883096;29;20229;-74
2021/11/01 16:21:30;;;;;;;18.30;9.97;;;13.70;93.70;;;;;;4885234;29;20663;-75
2021/11/01 16:23:57;;;;;;;16.20;8.73;;;13.70;93.80;;;;;;4874623;29;20259;-75
2021/11/01 16:26:25;;;;;;;16.87;8.07;;;13.70;93.90;;;;;;4895678;29;20305;-75
2021/11/01 16:28:57;;;;;;;15.30;8.00;;;13.70;93.90;;;;;;4883390;29;20252;-75
2021/11/01 16:31:41;;;;;;;13.27;7.33;;;13.70;94.00;;;;;;4888920;29;20217;-74
2021/11/01 16:34:12;;;;;;;13.47;7.23;;;13.80;94.00;;;;;;4889573;29;20224;-75
2021/11/01 16:36:49;;;;;;;12.20;6.53;;;13.80;94.10;;;;;;4949211;28;20206;-75
2021/11/01 16:39:17;;;;;;;11.80;7.70;;;13.80;94.10;;;;;;4978652;28;20237;-75
2021/11/01 16:41:46;;;;;;;19.80;9.87;;;13.80;94.10;;;;;;4981183;28;20202;-74
2021/11/01 16:44:18;;;;;;;13.87;8.43;;;13.80;94.20;;;;;;4986164;28;20215;-74
2021/11/01 16:46:47;;;;;;;13.60;7.73;;;13.80;94.30;;;;;;4970419;28;20210;-75
2021/11/01 16:49:17;;;;;;;14.13;7.20;;;13.80;94.30;;;;;;4984358;28;20307;-75
2021/11/01 16:51:46;;;;;;;10.47;6.80;;;13.80;94.40;;;;;;4985889;28;20202;-75
2021/11/01 16:54:16;;;;;;;13.20;7.67;;;13.80;94.40;;;;;;4975429;28;20830;-75
2021/11/01 16:56:54;;;;;;;14.37;8.60;;;13.80;94.50;;;;;;5023603;28;20211;-75
2021/11/01 16:59:37;;;;;;;13.83;8.20;;;13.80;94.50;;;;;;5045827;28;20290;-75
2021/11/01 17:02:24;;;;;;;12.57;7.43;;;13.80;94.60;;;;;;5050608;28;20207;-75
2021/11/01 17:04:55;;;;;;;9.47;6.47;;;13.80;94.70;;;;;;5035985;28;20192;-75
2021/11/01 17:07:33;;;;;;;8.60;6.10;;;13.80;94.70;;;;;;5063542;28;20222;-75
2021/11/01 17:21:28;;;;;;;11.77;7.67;;;13.80;94.90;;;;;;4998517;28;20204;-74
2021/11/01 17:24:14;;;;;;;17.33;9.83;;;13.80;95.00;;;;;;5002945;28;20229;-74
2021/11/01 17:26:57;;;;;;;14.97;8.37;;;13.80;95.10;;;;;;4986055;28;20216;-75
2021/11/01 17:29:42;;;;;;;16.57;8.77;;;13.80;95.10;;;;;;4988003;28;20205;-75
2021/11/01 17:35:06;;;;;;;16.53;9.07;;;13.80;95.20;;;;;;4985250;28;20231;-75
2021/11/01 17:37:42;;;;;;;21.47;10.47;;;13.80;95.30;;;;;;4998836;28;20211;-75
2021/11/01 18:38:53;;;;;;;18.83;10.87;;;13.30;96.70;;;;;;5050083;28;20286;-75
2021/11/01 18:41:21;;;;;;;15.43;9.10;;;13.20;96.70;;;;;;5053793;28;20966;-75
2021/11/01 18:52:31;;;;;;;18.43;9.93;;;12.80;96.90;;;;;;5065602;28;20680;-74
2021/11/01 18:55:05;;;;;;;18.77;10.13;;;12.80;97.00;;;;;;5056088;28;20223;-74
2021/11/01 18:57:35;;;;;;;22.43;10.83;;;12.70;97.00;;;;;;5049567;28;20232;-74
2021/11/01 19:00:05;;;;;;;22.17;11.33;;;12.60;97.00;;;;;;5048933;28;20351;-75
2021/11/01 19:02:44;;;;;;;18.77;10.57;;;12.60;97.20;;;;;;5049052;28;20734;-75
2021/11/01 19:05:18;;;;;;;16.50;10.43;;;12.50;97.20;;;;;;5036864;28;20663;-74
2021/11/01 19:07:53;;;;;;;18.83;10.80;;;12.40;97.20;;;;;;5065961;28;20298;-74
2021/11/01 20:06:22;;;;;;;20.20;10.43;;;11.30;99.20;;;;;;4977172;28;20869;-74
2021/11/01 20:12:01;;;;;;;18.80;10.50;;;11.20;99.40;;;;;;4972634;28;20217;-74
2021/11/01 20:14:44;;;;;;;24.57;11.87;;;11.10;99.40;;;;;;4949436;28;20246;-75
2021/11/01 21:24:36;;;;;;;14.27;7.87;;;10.40;99.90;;;;;;4985801;28;20242;-75
2021/11/01 21:27:04;;;;;;;16.43;9.07;;;10.30;99.90;;;;;;4984694;28;20652;-75
2021/11/01 21:29:33;;;;;;;17.33;9.67;;;10.30;99.90;;;;;;4985951;28;20751;-75
2021/11/01 21:32:01;;;;;;;20.57;10.30;;;10.30;99.90;;;;;;4966154;28;20675;-75
2021/11/01 21:34:31;;;;;;;19.63;10.40;;;10.30;99.90;;;;;;4965794;28;20228;-75
2021/11/01 21:37:00;;;;;;;23.63;11.87;;;10.20;99.90;;;;;;4959567;28;20671;-75
2021/11/01 21:39:27;;;;;;;25.37;13.07;;;10.20;99.90;;;;;;4959570;28;20260;-70
2021/11/01 21:41:54;;;;;;;22.83;11.57;;;10.10;99.90;;;;;;4985939;28;20203;-73
2021/11/01 21:44:21;;;;;;;23.27;11.47;;;10.10;99.90;;;;;;4960171;28;20306;-72
2021/11/01 21:46:49;;;;;;;22.65;10.70;;;10.10;99.90;;;;;;4985328;28;20472;-72
2021/11/01 21:49:17;;;;;;;18.60;8.97;;;10.00;99.90;;;;;;4984091;28;20223;-72
2021/11/01 21:51:45;;;;;;;22.67;11.63;;;10.00;99.90;;;;;;4987828;28;20972;-71
2021/11/01 21:54:22;;;;;;;22.93;11.63;;;10.00;99.90;;;;;;4980225;28;20630;-72
2021/11/01 21:56:53;;;;;;;20.87;10.90;;;9.90;99.90;;;;;;5031343;28;20287;-72